Terminal Aerodrome Forecast
Issued by NWS

Home | Current Version | Previous Version | Text Only | Print | Product List | Glossary On
Versions: 1 2 3 4 5 6 7 8 9 10 11 12 13 14 15 16 17 18 19 20 21 22 23 24 25
000
FTUS44 KCRP 192300 CCA
TAFALI
TAF COR
KALI 192342Z 2000/2024 09010G18KT P6SM VCSH SCT040 BKN150
     FM200200 09008KT P6SM SCT025 BKN250
     FM200800 07004KT 5SM BR BKN025 OVC200
     FM201400 08009KT P6SM VCSH BKN025
     FM201900 09012G18KT P6SM VCTS BKN035CB PROB30 2019/2021 5SM
      TSRA OVC030CB=

USA.gov is the U.S. government's official web portal to all federal, state and local government web resources and services.